sensor_id;sensor_type;location;lat;lon;timestamp;P1;durP1;ratioP1;P2;durP2;ratioP2
42110;SDS011;27766;52.174;5.456;2024-02-15T00:01:12;15.50;;;6.95;;
42110;SDS011;27766;52.174;5.456;2024-02-15T00:03:39;12.40;;;7.28;;
42110;SDS011;27766;52.174;5.456;2024-02-15T00:06:06;9.93;;;6.70;;
42110;SDS011;27766;52.174;5.456;2024-02-15T00:08:34;19.02;;;7.65;;
42110;SDS011;27766;52.174;5.456;2024-02-15T00:11:01;11.98;;;7.25;;
42110;SDS011;27766;52.174;5.456;2024-02-15T00:13:29;21.30;;;7.78;;
42110;SDS011;27766;52.174;5.456;2024-02-15T00:15:57;15.18;;;7.90;;
42110;SDS011;27766;52.174;5.456;2024-02-15T00:18:25;11.68;;;7.07;;
42110;SDS011;27766;52.174;5.456;2024-02-15T00:20:52;12.02;;;7.10;;
42110;SDS011;27766;52.174;5.456;2024-02-15T00:23:20;16.02;;;8.15;;
42110;SDS011;27766;52.174;5.456;2024-02-15T00:25:47;18.38;;;7.85;;
42110;SDS011;27766;52.174;5.456;2024-02-15T00:28:16;10.80;;;7.68;;
42110;SDS011;27766;52.174;5.456;2024-02-15T00:30:43;15.30;;;7.97;;
42110;SDS011;27766;52.174;5.456;2024-02-15T00:33:10;11.70;;;8.20;;
42110;SDS011;27766;52.174;5.456;2024-02-15T00:35:38;12.57;;;8.02;;
42110;SDS011;27766;52.174;5.456;2024-02-15T00:38:06;12.68;;;8.45;;
42110;SDS011;27766;52.174;5.456;2024-02-15T00:40:34;12.63;;;7.93;;
42110;SDS011;27766;52.174;5.456;2024-02-15T00:43:01;9.73;;;7.53;;
42110;SDS011;27766;52.174;5.456;2024-02-15T00:45:28;12.85;;;8.48;;
42110;SDS011;27766;52.174;5.456;2024-02-15T00:47:56;19.10;;;8.93;;
42110;SDS011;27766;52.174;5.456;2024-02-15T00:50:23;12.38;;;8.73;;
42110;SDS011;27766;52.174;5.456;2024-02-15T00:52:50;12.95;;;8.65;;
42110;SDS011;27766;52.174;5.456;2024-02-15T00:55:17;10.30;;;7.60;;
42110;SDS011;27766;52.174;5.456;2024-02-15T00:57:46;12.70;;;8.82;;
42110;SDS011;27766;52.174;5.456;2024-02-15T01:00:13;13.73;;;8.55;;
42110;SDS011;27766;52.174;5.456;2024-02-15T01:02:44;12.20;;;9.32;;
42110;SDS011;27766;52.174;5.456;2024-02-15T01:05:12;17.17;;;9.45;;
42110;SDS011;27766;52.174;5.456;2024-02-15T01:07:42;13.52;;;8.13;;
42110;SDS011;27766;52.174;5.456;2024-02-15T01:10:09;12.40;;;8.48;;
42110;SDS011;27766;52.174;5.456;2024-02-15T01:12:36;14.73;;;7.60;;
42110;SDS011;27766;52.174;5.456;2024-02-15T01:15:04;12.23;;;8.50;;
42110;SDS011;27766;52.174;5.456;2024-02-15T01:17:31;16.95;;;8.85;;
42110;SDS011;27766;52.174;5.456;2024-02-15T01:19:59;13.32;;;7.63;;
42110;SDS011;27766;52.174;5.456;2024-02-15T01:22:26;16.73;;;8.43;;
42110;SDS011;27766;52.174;5.456;2024-02-15T01:24:53;11.30;;;7.97;;
42110;SDS011;27766;52.174;5.456;2024-02-15T01:27:21;14.10;;;8.20;;
42110;SDS011;27766;52.174;5.456;2024-02-15T01:29:48;14.57;;;8.07;;
42110;SDS011;27766;52.174;5.456;2024-02-15T01:32:15;12.25;;;8.32;;
42110;SDS011;27766;52.174;5.456;2024-02-15T01:34:42;10.48;;;8.35;;
42110;SDS011;27766;52.174;5.456;2024-02-15T01:37:09;12.70;;;8.85;;
42110;SDS011;27766;52.174;5.456;2024-02-15T01:39:37;11.88;;;9.05;;
42110;SDS011;27766;52.174;5.456;2024-02-15T01:42:04;14.43;;;9.52;;
42110;SDS011;27766;52.174;5.456;2024-02-15T01:44:32;16.05;;;10.95;;
42110;SDS011;27766;52.174;5.456;2024-02-15T01:46:59;16.02;;;10.90;;
42110;SDS011;27766;52.174;5.456;2024-02-15T01:49:27;19.20;;;11.85;;
42110;SDS011;27766;52.174;5.456;2024-02-15T01:51:55;21.77;;;13.70;;
42110;SDS011;27766;52.174;5.456;2024-02-15T01:54:24;17.98;;;13.50;;
42110;SDS011;27766;52.174;5.456;2024-02-15T01:56:52;23.40;;;14.00;;
42110;SDS011;27766;52.174;5.456;2024-02-15T01:59:21;26.73;;;15.65;;
42110;SDS011;27766;52.174;5.456;2024-02-15T02:01:49;21.30;;;15.27;;
42110;SDS011;27766;52.174;5.456;2024-02-15T02:04:17;17.92;;;14.45;;
42110;SDS011;27766;52.174;5.456;2024-02-15T02:06:44;19.77;;;14.52;;
42110;SDS011;27766;52.174;5.456;2024-02-15T02:09:11;23.58;;;14.68;;
42110;SDS011;27766;52.174;5.456;2024-02-15T02:11:43;20.83;;;15.48;;
42110;SDS011;27766;52.174;5.456;2024-02-15T02:14:13;18.83;;;15.30;;
42110;SDS011;27766;52.174;5.456;2024-02-15T02:16:40;19.65;;;14.80;;
42110;SDS011;27766;52.174;5.456;2024-02-15T02:19:08;19.45;;;15.15;;
42110;SDS011;27766;52.174;5.456;2024-02-15T02:21:36;29.80;;;15.35;;
42110;SDS011;27766;52.174;5.456;2024-02-15T02:24:08;21.52;;;14.40;;
42110;SDS011;27766;52.174;5.456;2024-02-15T02:26:48;23.83;;;15.75;;
42110;SDS011;27766;52.174;5.456;2024-02-15T02:29:16;20.05;;;13.98;;
42110;SDS011;27766;52.174;5.456;2024-02-15T02:31:43;23.35;;;14.95;;
42110;SDS011;27766;52.174;5.456;2024-02-15T02:34:10;21.83;;;15.40;;
42110;SDS011;27766;52.174;5.456;2024-02-15T02:36:38;18.63;;;15.10;;
42110;SDS011;27766;52.174;5.456;2024-02-15T02:39:07;20.55;;;14.10;;
42110;SDS011;27766;52.174;5.456;2024-02-15T02:41:34;22.80;;;15.02;;
42110;SDS011;27766;52.174;5.456;2024-02-15T02:44:01;21.63;;;14.93;;
42110;SDS011;27766;52.174;5.456;2024-02-15T02:46:28;20.15;;;14.55;;
42110;SDS011;27766;52.174;5.456;2024-02-15T02:48:55;18.02;;;14.52;;
42110;SDS011;27766;52.174;5.456;2024-02-15T02:51:23;20.58;;;13.68;;
42110;SDS011;27766;52.174;5.456;2024-02-15T02:53:50;20.25;;;14.27;;
42110;SDS011;27766;52.174;5.456;2024-02-15T02:56:17;18.70;;;13.20;;
42110;SDS011;27766;52.174;5.456;2024-02-15T02:58:45;18.98;;;13.27;;
42110;SDS011;27766;52.174;5.456;2024-02-15T03:01:12;18.80;;;13.55;;
42110;SDS011;27766;52.174;5.456;2024-02-15T03:03:40;20.52;;;12.70;;
42110;SDS011;27766;52.174;5.456;2024-02-15T03:06:08;18.88;;;12.15;;
42110;SDS011;27766;52.174;5.456;2024-02-15T03:08:35;18.85;;;13.23;;
42110;SDS011;27766;52.174;5.456;2024-02-15T03:11:03;21.17;;;12.20;;
42110;SDS011;27766;52.174;5.456;2024-02-15T03:13:31;15.32;;;12.27;;
42110;SDS011;27766;52.174;5.456;2024-02-15T03:15:58;19.42;;;12.90;;
42110;SDS011;27766;52.174;5.456;2024-02-15T03:18:25;17.48;;;11.88;;
42110;SDS011;27766;52.174;5.456;2024-02-15T03:20:53;19.65;;;12.20;;
42110;SDS011;27766;52.174;5.456;2024-02-15T03:23:20;16.70;;;11.45;;
42110;SDS011;27766;52.174;5.456;2024-02-15T03:25:47;18.10;;;11.90;;
42110;SDS011;27766;52.174;5.456;2024-02-15T03:28:15;17.08;;;12.60;;
42110;SDS011;27766;52.174;5.456;2024-02-15T03:30:43;19.48;;;11.98;;
42110;SDS011;27766;52.174;5.456;2024-02-15T03:33:10;21.38;;;11.45;;
42110;SDS011;27766;52.174;5.456;2024-02-15T03:35:37;17.25;;;11.75;;
42110;SDS011;27766;52.174;5.456;2024-02-15T03:38:05;20.55;;;11.73;;
42110;SDS011;27766;52.174;5.456;2024-02-15T03:40:33;15.55;;;10.98;;
42110;SDS011;27766;52.174;5.456;2024-02-15T03:43:00;16.10;;;12.00;;
42110;SDS011;27766;52.174;5.456;2024-02-15T03:45:28;15.55;;;11.23;;
42110;SDS011;27766;52.174;5.456;2024-02-15T03:47:55;13.40;;;10.57;;
42110;SDS011;27766;52.174;5.456;2024-02-15T03:50:23;17.33;;;11.10;;
42110;SDS011;27766;52.174;5.456;2024-02-15T03:52:50;13.05;;;10.40;;
42110;SDS011;27766;52.174;5.456;2024-02-15T03:55:18;15.27;;;10.68;;
42110;SDS011;27766;52.174;5.456;2024-02-15T03:57:45;13.20;;;9.75;;
42110;SDS011;27766;52.174;5.456;2024-02-15T04:00:14;14.77;;;9.25;;
42110;SDS011;27766;52.174;5.456;2024-02-15T04:02:47;14.93;;;9.50;;
42110;SDS011;27766;52.174;5.456;2024-02-15T04:05:16;20.48;;;10.35;;
42110;SDS011;27766;52.174;5.456;2024-02-15T04:07:45;14.02;;;9.95;;
42110;SDS011;27766;52.174;5.456;2024-02-15T04:10:12;14.07;;;9.75;;
42110;SDS011;27766;52.174;5.456;2024-02-15T04:12:39;16.10;;;10.15;;
42110;SDS011;27766;52.174;5.456;2024-02-15T04:15:09;17.20;;;10.18;;
42110;SDS011;27766;52.174;5.456;2024-02-15T04:17:41;18.60;;;9.38;;
42110;SDS011;27766;52.174;5.456;2024-02-15T04:20:11;14.27;;;9.52;;
42110;SDS011;27766;52.174;5.456;2024-02-15T04:22:39;18.15;;;9.60;;
42110;SDS011;27766;52.174;5.456;2024-02-15T04:25:10;16.38;;;9.10;;
42110;SDS011;27766;52.174;5.456;2024-02-15T04:27:44;11.73;;;9.18;;
42110;SDS011;27766;52.174;5.456;2024-02-15T04:30:14;16.15;;;9.23;;
42110;SDS011;27766;52.174;5.456;2024-02-15T04:32:43;22.50;;;9.70;;
42110;SDS011;27766;52.174;5.456;2024-02-15T04:35:10;14.02;;;8.70;;
42110;SDS011;27766;52.174;5.456;2024-02-15T04:37:41;12.10;;;7.95;;
42110;SDS011;27766;52.174;5.456;2024-02-15T04:40:09;11.25;;;8.85;;
42110;SDS011;27766;52.174;5.456;2024-02-15T04:42:40;17.20;;;8.27;;
42110;SDS011;27766;52.174;5.456;2024-02-15T04:45:10;16.63;;;8.15;;
42110;SDS011;27766;52.174;5.456;2024-02-15T04:47:38;13.23;;;8.75;;
42110;SDS011;27766;52.174;5.456;2024-02-15T04:50:07;12.40;;;7.90;;
42110;SDS011;27766;52.174;5.456;2024-02-15T04:52:36;11.23;;;8.15;;
42110;SDS011;27766;52.174;5.456;2024-02-15T04:55:03;16.27;;;8.55;;
42110;SDS011;27766;52.174;5.456;2024-02-15T04:57:35;12.57;;;7.55;;
42110;SDS011;27766;52.174;5.456;2024-02-15T05:00:04;14.70;;;8.35;;
42110;SDS011;27766;52.174;5.456;2024-02-15T05:02:38;14.18;;;7.47;;
42110;SDS011;27766;52.174;5.456;2024-02-15T05:05:10;11.40;;;7.65;;
42110;SDS011;27766;52.174;5.456;2024-02-15T05:07:40;12.43;;;7.80;;
42110;SDS011;27766;52.174;5.456;2024-02-15T05:10:09;10.05;;;7.68;;
42110;SDS011;27766;52.174;5.456;2024-02-15T05:12:37;13.23;;;7.60;;
42110;SDS011;27766;52.174;5.456;2024-02-15T05:15:04;16.60;;;8.10;;
42110;SDS011;27766;52.174;5.456;2024-02-15T05:17:39;14.23;;;7.63;;
42110;SDS011;27766;52.174;5.456;2024-02-15T05:20:10;12.13;;;8.70;;
42110;SDS011;27766;52.174;5.456;2024-02-15T05:22:45;12.10;;;7.47;;
42110;SDS011;27766;52.174;5.456;2024-02-15T05:25:17;16.00;;;7.57;;
42110;SDS011;27766;52.174;5.456;2024-02-15T05:27:52;14.13;;;8.27;;
42110;SDS011;27766;52.174;5.456;2024-02-15T05:30:24;12.00;;;7.93;;
42110;SDS011;27766;52.174;5.456;2024-02-15T05:32:52;13.15;;;8.48;;
42110;SDS011;27766;52.174;5.456;2024-02-15T05:35:21;11.15;;;8.82;;
42110;SDS011;27766;52.174;5.456;2024-02-15T05:37:49;14.43;;;8.30;;
42110;SDS011;27766;52.174;5.456;2024-02-15T05:40:19;13.23;;;8.65;;
42110;SDS011;27766;52.174;5.456;2024-02-15T05:42:46;11.90;;;8.30;;
42110;SDS011;27766;52.174;5.456;2024-02-15T05:47:53;14.85;;;8.52;;
42110;SDS011;27766;52.174;5.456;2024-02-15T05:50:21;16.38;;;8.52;;
42110;SDS011;27766;52.174;5.456;2024-02-15T05:52:50;15.35;;;8.50;;
42110;SDS011;27766;52.174;5.456;2024-02-15T05:55:22;12.13;;;7.93;;
42110;SDS011;27766;52.174;5.456;2024-02-15T05:57:49;18.40;;;9.27;;
42110;SDS011;27766;52.174;5.456;2024-02-15T06:00:16;10.95;;;8.75;;
42110;SDS011;27766;52.174;5.456;2024-02-15T06:02:49;13.27;;;8.57;;
42110;SDS011;27766;52.174;5.456;2024-02-15T06:05:18;13.48;;;8.27;;
42110;SDS011;27766;52.174;5.456;2024-02-15T06:07:46;14.05;;;9.07;;
42110;SDS011;27766;52.174;5.456;2024-02-15T06:10:14;9.43;;;8.40;;
42110;SDS011;27766;52.174;5.456;2024-02-15T06:12:42;14.90;;;8.10;;
42110;SDS011;27766;52.174;5.456;2024-02-15T06:15:10;14.40;;;7.85;;
42110;SDS011;27766;52.174;5.456;2024-02-15T06:17:44;19.70;;;8.02;;
42110;SDS011;27766;52.174;5.456;2024-02-15T06:20:13;12.02;;;9.07;;
42110;SDS011;27766;52.174;5.456;2024-02-15T06:22:41;12.52;;;8.70;;
42110;SDS011;27766;52.174;5.456;2024-02-15T06:25:09;12.55;;;8.43;;
42110;SDS011;27766;52.174;5.456;2024-02-15T06:27:37;12.18;;;9.05;;
42110;SDS011;27766;52.174;5.456;2024-02-15T06:30:08;12.40;;;8.73;;
42110;SDS011;27766;52.174;5.456;2024-02-15T06:32:55;15.82;;;8.55;;
42110;SDS011;27766;52.174;5.456;2024-02-15T06:35:44;9.35;;;8.32;;
42110;SDS011;27766;52.174;5.456;2024-02-15T06:38:30;15.73;;;8.40;;
42110;SDS011;27766;52.174;5.456;2024-02-15T06:41:15;11.98;;;8.75;;
42110;SDS011;27766;52.174;5.456;2024-02-15T06:43:42;14.55;;;9.60;;
42110;SDS011;27766;52.174;5.456;2024-02-15T06:46:10;11.52;;;8.85;;
42110;SDS011;27766;52.174;5.456;2024-02-15T06:48:41;15.50;;;9.65;;
42110;SDS011;27766;52.174;5.456;2024-02-15T06:51:12;10.20;;;8.57;;
42110;SDS011;27766;52.174;5.456;2024-02-15T06:53:42;14.10;;;9.40;;
42110;SDS011;27766;52.174;5.456;2024-02-15T06:56:10;16.45;;;10.30;;
42110;SDS011;27766;52.174;5.456;2024-02-15T06:58:38;13.82;;;10.25;;
42110;SDS011;27766;52.174;5.456;2024-02-15T07:01:07;14.00;;;8.90;;
42110;SDS011;27766;52.174;5.456;2024-02-15T07:03:34;11.98;;;10.05;;
42110;SDS011;27766;52.174;5.456;2024-02-15T07:06:02;14.75;;;9.35;;
42110;SDS011;27766;52.174;5.456;2024-02-15T07:08:31;15.65;;;9.93;;
42110;SDS011;27766;52.174;5.456;2024-02-15T07:10:58;10.68;;;9.30;;
42110;SDS011;27766;52.174;5.456;2024-02-15T07:13:28;15.02;;;9.88;;
42110;SDS011;27766;52.174;5.456;2024-02-15T07:15:55;13.88;;;9.07;;
42110;SDS011;27766;52.174;5.456;2024-02-15T07:18:22;14.95;;;9.80;;
42110;SDS011;27766;52.174;5.456;2024-02-15T07:20:55;13.13;;;10.05;;
42110;SDS011;27766;52.174;5.456;2024-02-15T07:23:25;13.35;;;9.43;;
42110;SDS011;27766;52.174;5.456;2024-02-15T07:25:52;13.65;;;9.40;;
42110;SDS011;27766;52.174;5.456;2024-02-15T07:28:21;10.43;;;8.13;;
42110;SDS011;27766;52.174;5.456;2024-02-15T07:30:48;10.63;;;9.30;;
42110;SDS011;27766;52.174;5.456;2024-02-15T07:33:19;14.52;;;9.32;;
42110;SDS011;27766;52.174;5.456;2024-02-15T07:35:48;9.95;;;8.95;;
42110;SDS011;27766;52.174;5.456;2024-02-15T07:38:18;10.07;;;8.65;;
42110;SDS011;27766;52.174;5.456;2024-02-15T07:40:45;14.18;;;8.57;;
42110;SDS011;27766;52.174;5.456;2024-02-15T07:43:12;12.52;;;8.98;;
42110;SDS011;27766;52.174;5.456;2024-02-15T07:45:40;11.55;;;9.00;;
42110;SDS011;27766;52.174;5.456;2024-02-15T07:48:09;12.70;;;8.43;;
42110;SDS011;27766;52.174;5.456;2024-02-15T07:50:36;11.90;;;9.55;;
42110;SDS011;27766;52.174;5.456;2024-02-15T07:53:04;10.40;;;8.30;;
42110;SDS011;27766;52.174;5.456;2024-02-15T07:55:36;12.63;;;8.43;;
42110;SDS011;27766;52.174;5.456;2024-02-15T07:58:04;9.63;;;7.57;;
42110;SDS011;27766;52.174;5.456;2024-02-15T08:00:31;8.73;;;6.82;;
42110;SDS011;27766;52.174;5.456;2024-02-15T08:02:59;10.73;;;6.80;;
42110;SDS011;27766;52.174;5.456;2024-02-15T08:05:26;12.20;;;6.65;;
42110;SDS011;27766;52.174;5.456;2024-02-15T08:07:53;10.45;;;9.35;;
42110;SDS011;27766;52.174;5.456;2024-02-15T08:10:24;8.25;;;7.43;;
42110;SDS011;27766;52.174;5.456;2024-02-15T08:12:54;8.55;;;6.15;;
42110;SDS011;27766;52.174;5.456;2024-02-15T08:15:24;24.67;;;18.80;;
42110;SDS011;27766;52.174;5.456;2024-02-15T08:17:54;14.07;;;11.80;;
42110;SDS011;27766;52.174;5.456;2024-02-15T08:20:22;12.60;;;10.25;;
42110;SDS011;27766;52.174;5.456;2024-02-15T08:22:49;12.32;;;10.00;;
42110;SDS011;27766;52.174;5.456;2024-02-15T08:25:17;10.43;;;8.00;;
42110;SDS011;27766;52.174;5.456;2024-02-15T08:27:46;7.20;;;6.20;;
42110;SDS011;27766;52.174;5.456;2024-02-15T08:30:16;6.75;;;4.93;;
42110;SDS011;27766;52.174;5.456;2024-02-15T08:32:49;7.63;;;6.90;;
42110;SDS011;27766;52.174;5.456;2024-02-15T08:35:17;6.18;;;5.05;;
42110;SDS011;27766;52.174;5.456;2024-02-15T08:37:44;5.53;;;4.95;;
42110;SDS011;27766;52.174;5.456;2024-02-15T08:40:14;7.95;;;5.07;;
42110;SDS011;27766;52.174;5.456;2024-02-15T08:42:42;7.32;;;4.95;;
42110;SDS011;27766;52.174;5.456;2024-02-15T08:45:10;5.03;;;4.47;;
42110;SDS011;27766;52.174;5.456;2024-02-15T08:47:40;5.05;;;4.43;;
42110;SDS011;27766;52.174;5.456;2024-02-15T08:50:09;5.60;;;4.80;;
42110;SDS011;27766;52.174;5.456;2024-02-15T08:52:39;5.75;;;4.07;;
42110;SDS011;27766;52.174;5.456;2024-02-15T08:55:09;4.75;;;3.70;;
42110;SDS011;27766;52.174;5.456;2024-02-15T08:57:41;3.63;;;3.20;;
42110;SDS011;27766;52.174;5.456;2024-02-15T09:00:11;3.08;;;2.75;;
42110;SDS011;27766;52.174;5.456;2024-02-15T09:02:44;3.53;;;3.03;;
42110;SDS011;27766;52.174;5.456;2024-02-15T09:05:13;7.93;;;4.53;;
42110;SDS011;27766;52.174;5.456;2024-02-15T09:07:42;5.32;;;3.10;;
42110;SDS011;27766;52.174;5.456;2024-02-15T09:10:10;3.83;;;2.97;;
42110;SDS011;27766;52.174;5.456;2024-02-15T09:12:41;2.88;;;2.55;;
42110;SDS011;27766;52.174;5.456;2024-02-15T09:15:09;4.80;;;3.70;;
42110;SDS011;27766;52.174;5.456;2024-02-15T09:17:41;3.85;;;3.40;;
42110;SDS011;27766;52.174;5.456;2024-02-15T09:20:13;2.90;;;2.50;;
42110;SDS011;27766;52.174;5.456;2024-02-15T09:22:47;4.85;;;3.30;;
42110;SDS011;27766;52.174;5.456;2024-02-15T09:25:16;2.90;;;2.42;;
42110;SDS011;27766;52.174;5.456;2024-02-15T09:27:44;4.07;;;3.05;;
42110;SDS011;27766;52.174;5.456;2024-02-15T09:30:13;4.22;;;2.90;;
42110;SDS011;27766;52.174;5.456;2024-02-15T09:32:41;3.35;;;2.58;;
42110;SDS011;27766;52.174;5.456;2024-02-15T09:35:10;4.85;;;2.72;;
42110;SDS011;27766;52.174;5.456;2024-02-15T09:37:47;3.53;;;2.70;;
42110;SDS011;27766;52.174;5.456;2024-02-15T09:40:17;4.75;;;2.92;;
42110;SDS011;27766;52.174;5.456;2024-02-15T09:42:46;6.00;;;2.88;;
42110;SDS011;27766;52.174;5.456;2024-02-15T09:45:14;4.57;;;3.10;;
42110;SDS011;27766;52.174;5.456;2024-02-15T09:47:44;3.08;;;2.65;;
42110;SDS011;27766;52.174;5.456;2024-02-15T09:50:12;7.47;;;3.30;;
42110;SDS011;27766;52.174;5.456;2024-02-15T09:52:44;5.72;;;2.97;;
42110;SDS011;27766;52.174;5.456;2024-02-15T09:55:13;5.07;;;3.20;;
42110;SDS011;27766;52.174;5.456;2024-02-15T09:57:41;6.95;;;3.50;;
42110;SDS011;27766;52.174;5.456;2024-02-15T10:00:11;3.85;;;2.80;;
42110;SDS011;27766;52.174;5.456;2024-02-15T10:02:41;4.75;;;3.00;;
42110;SDS011;27766;52.174;5.456;2024-02-15T10:05:11;6.00;;;3.15;;
42110;SDS011;27766;52.174;5.456;2024-02-15T10:07:42;4.57;;;3.20;;
42110;SDS011;27766;52.174;5.456;2024-02-15T10:10:18;6.07;;;3.58;;
42110;SDS011;27766;52.174;5.456;2024-02-15T10:12:50;6.50;;;3.35;;
42110;SDS011;27766;52.174;5.456;2024-02-15T10:18:15;4.63;;;3.58;;
42110;SDS011;27766;52.174;5.456;2024-02-15T10:20:45;6.88;;;4.10;;
42110;SDS011;27766;52.174;5.456;2024-02-15T10:23:24;5.80;;;3.80;;
42110;SDS011;27766;52.174;5.456;2024-02-15T10:25:51;4.65;;;3.42;;
42110;SDS011;27766;52.174;5.456;2024-02-15T10:28:22;8.23;;;4.28;;
42110;SDS011;27766;52.174;5.456;2024-02-15T10:30:54;10.55;;;4.07;;
42110;SDS011;27766;52.174;5.456;2024-02-15T10:33:30;6.57;;;4.03;;
42110;SDS011;27766;52.174;5.456;2024-02-15T10:36:08;5.07;;;3.17;;
42110;SDS011;27766;52.174;5.456;2024-02-15T10:38:38;7.47;;;3.92;;
42110;SDS011;27766;52.174;5.456;2024-02-15T10:41:06;8.23;;;3.88;;
42110;SDS011;27766;52.174;5.456;2024-02-15T10:43:35;6.35;;;3.95;;
42110;SDS011;27766;52.174;5.456;2024-02-15T10:46:06;6.78;;;4.35;;
42110;SDS011;27766;52.174;5.456;2024-02-15T10:48:37;6.05;;;3.83;;
42110;SDS011;27766;52.174;5.456;2024-02-15T10:51:08;5.47;;;3.95;;
42110;SDS011;27766;52.174;5.456;2024-02-15T10:53:39;8.18;;;3.83;;
42110;SDS011;27766;52.174;5.456;2024-02-15T10:56:15;12.48;;;3.88;;
42110;SDS011;27766;52.174;5.456;2024-02-15T10:58:47;7.88;;;3.97;;
42110;SDS011;27766;52.174;5.456;2024-02-15T11:01:17;5.93;;;4.07;;
42110;SDS011;27766;52.174;5.456;2024-02-15T11:03:50;6.57;;;4.43;;
42110;SDS011;27766;52.174;5.456;2024-02-15T11:06:24;7.13;;;4.22;;
42110;SDS011;27766;52.174;5.456;2024-02-15T11:08:54;8.18;;;4.32;;
42110;SDS011;27766;52.174;5.456;2024-02-15T11:11:22;7.90;;;4.35;;
42110;SDS011;27766;52.174;5.456;2024-02-15T11:13:50;6.50;;;4.10;;
42110;SDS011;27766;52.174;5.456;2024-02-15T11:16:53;6.53;;;4.00;;
42110;SDS011;27766;52.174;5.456;2024-02-15T11:21:59;11.60;;;4.38;;
42110;SDS011;27766;52.174;5.456;2024-02-15T11:24:30;10.07;;;4.70;;
42110;SDS011;27766;52.174;5.456;2024-02-15T11:27:04;7.50;;;4.38;;
42110;SDS011;27766;52.174;5.456;2024-02-15T11:35:21;7.93;;;5.38;;
42110;SDS011;27766;52.174;5.456;2024-02-15T11:40:23;12.48;;;5.35;;
42110;SDS011;27766;52.174;5.456;2024-02-15T11:42:56;7.40;;;4.85;;
42110;SDS011;27766;52.174;5.456;2024-02-15T11:45:28;7.80;;;5.32;;
42110;SDS011;27766;52.174;5.456;2024-02-15T11:48:10;8.27;;;6.00;;
42110;SDS011;27766;52.174;5.456;2024-02-15T11:50:40;8.35;;;6.07;;
42110;SDS011;27766;52.174;5.456;2024-02-15T11:53:10;11.90;;;5.85;;
42110;SDS011;27766;52.174;5.456;2024-02-15T11:55:39;8.05;;;6.05;;
42110;SDS011;27766;52.174;5.456;2024-02-15T11:58:09;11.70;;;6.18;;
42110;SDS011;27766;52.174;5.456;2024-02-15T12:00:38;14.98;;;6.68;;
42110;SDS011;27766;52.174;5.456;2024-02-15T12:03:25;7.60;;;5.80;;
42110;SDS011;27766;52.174;5.456;2024-02-15T12:09:19;9.30;;;5.50;;
42110;SDS011;27766;52.174;5.456;2024-02-15T12:12:06;7.93;;;5.70;;
42110;SDS011;27766;52.174;5.456;2024-02-15T12:14:58;7.32;;;5.65;;
42110;SDS011;27766;52.174;5.456;2024-02-15T12:17:45;12.07;;;6.00;;
42110;SDS011;27766;52.174;5.456;2024-02-15T12:20:31;9.80;;;6.05;;
42110;SDS011;27766;52.174;5.456;2024-02-15T12:22:59;7.65;;;5.82;;
42110;SDS011;27766;52.174;5.456;2024-02-15T12:25:29;6.90;;;5.25;;
42110;SDS011;27766;52.174;5.456;2024-02-15T12:28:00;14.85;;;5.63;;
42110;SDS011;27766;52.174;5.456;2024-02-15T12:30:34;6.53;;;4.35;;
42110;SDS011;27766;52.174;5.456;2024-02-15T12:33:11;8.93;;;5.05;;
42110;SDS011;27766;52.174;5.456;2024-02-15T12:35:49;8.25;;;5.13;;
42110;SDS011;27766;52.174;5.456;2024-02-15T12:38:18;11.18;;;5.70;;
42110;SDS011;27766;52.174;5.456;2024-02-15T12:40:45;11.63;;;5.45;;
42110;SDS011;27766;52.174;5.456;2024-02-15T12:43:14;8.68;;;5.22;;
42110;SDS011;27766;52.174;5.456;2024-02-15T12:45:42;7.10;;;4.88;;
42110;SDS011;27766;52.174;5.456;2024-02-15T12:48:10;8.00;;;3.90;;
42110;SDS011;27766;52.174;5.456;2024-02-15T12:50:38;8.13;;;4.88;;
42110;SDS011;27766;52.174;5.456;2024-02-15T12:53:06;7.13;;;4.28;;
42110;SDS011;27766;52.174;5.456;2024-02-15T12:55:35;6.13;;;4.38;;
42110;SDS011;27766;52.174;5.456;2024-02-15T12:58:05;9.57;;;4.78;;
42110;SDS011;27766;52.174;5.456;2024-02-15T13:00:40;7.88;;;4.95;;
42110;SDS011;27766;52.174;5.456;2024-02-15T13:03:08;7.93;;;3.90;;
42110;SDS011;27766;52.174;5.456;2024-02-15T13:05:42;7.90;;;4.28;;
42110;SDS011;27766;52.174;5.456;2024-02-15T13:08:11;7.00;;;3.78;;
42110;SDS011;27766;52.174;5.456;2024-02-15T13:10:42;6.45;;;3.90;;
42110;SDS011;27766;52.174;5.456;2024-02-15T13:13:10;4.63;;;3.60;;
42110;SDS011;27766;52.174;5.456;2024-02-15T13:15:40;8.02;;;3.50;;
42110;SDS011;27766;52.174;5.456;2024-02-15T13:18:08;8.10;;;3.13;;
42110;SDS011;27766;52.174;5.456;2024-02-15T13:20:41;6.47;;;3.60;;
42110;SDS011;27766;52.174;5.456;2024-02-15T13:23:09;6.18;;;3.20;;
42110;SDS011;27766;52.174;5.456;2024-02-15T13:25:50;5.72;;;3.10;;
42110;SDS011;27766;52.174;5.456;2024-02-15T13:28:19;5.70;;;2.72;;
42110;SDS011;27766;52.174;5.456;2024-02-15T13:30:47;7.78;;;3.08;;
42110;SDS011;27766;52.174;5.456;2024-02-15T13:33:16;10.82;;;2.90;;
42110;SDS011;27766;52.174;5.456;2024-02-15T13:35:44;4.13;;;2.95;;
42110;SDS011;27766;52.174;5.456;2024-02-15T13:38:12;4.28;;;2.75;;
42110;SDS011;27766;52.174;5.456;2024-02-15T13:40:51;2.63;;;1.83;;
42110;SDS011;27766;52.174;5.456;2024-02-15T13:43:19;5.00;;;2.33;;
42110;SDS011;27766;52.174;5.456;2024-02-15T13:45:46;3.03;;;2.30;;
42110;SDS011;27766;52.174;5.456;2024-02-15T13:48:15;4.13;;;2.55;;
42110;SDS011;27766;52.174;5.456;2024-02-15T13:50:43;4.05;;;2.50;;
42110;SDS011;27766;52.174;5.456;2024-02-15T13:53:12;7.05;;;2.92;;
42110;SDS011;27766;52.174;5.456;2024-02-15T13:55:41;7.45;;;2.55;;
42110;SDS011;27766;52.174;5.456;2024-02-15T13:58:08;5.55;;;2.78;;
42110;SDS011;27766;52.174;5.456;2024-02-15T14:00:40;4.00;;;2.50;;
42110;SDS011;27766;52.174;5.456;2024-02-15T14:03:10;3.90;;;2.50;;
42110;SDS011;27766;52.174;5.456;2024-02-15T14:05:38;5.28;;;2.20;;
42110;SDS011;27766;52.174;5.456;2024-02-15T14:08:08;3.03;;;1.80;;
42110;SDS011;27766;52.174;5.456;2024-02-15T14:10:38;4.13;;;2.25;;
42110;SDS011;27766;52.174;5.456;2024-02-15T14:13:06;7.15;;;2.53;;
42110;SDS011;27766;52.174;5.456;2024-02-15T14:15:35;4.55;;;2.50;;
42110;SDS011;27766;52.174;5.456;2024-02-15T14:18:13;3.20;;;2.53;;
42110;SDS011;27766;52.174;5.456;2024-02-15T14:20:45;5.80;;;2.28;;
42110;SDS011;27766;52.174;5.456;2024-02-15T14:23:16;4.35;;;2.15;;
42110;SDS011;27766;52.174;5.456;2024-02-15T14:25:50;7.80;;;2.80;;
42110;SDS011;27766;52.174;5.456;2024-02-15T14:28:17;5.95;;;2.67;;
42110;SDS011;27766;52.174;5.456;2024-02-15T14:30:44;8.35;;;2.67;;
42110;SDS011;27766;52.174;5.456;2024-02-15T14:33:30;6.28;;;2.90;;
42110;SDS011;27766;52.174;5.456;2024-02-15T14:36:01;7.63;;;2.65;;
42110;SDS011;27766;52.174;5.456;2024-02-15T14:38:30;4.30;;;2.80;;
42110;SDS011;27766;52.174;5.456;2024-02-15T14:40:59;3.60;;;2.15;;
42110;SDS011;27766;52.174;5.456;2024-02-15T14:43:28;4.07;;;2.30;;
42110;SDS011;27766;52.174;5.456;2024-02-15T14:45:56;2.78;;;2.00;;
42110;SDS011;27766;52.174;5.456;2024-02-15T14:48:25;7.82;;;2.45;;
42110;SDS011;27766;52.174;5.456;2024-02-15T14:50:53;2.50;;;1.98;;
42110;SDS011;27766;52.174;5.456;2024-02-15T14:53:22;8.60;;;3.03;;
42110;SDS011;27766;52.174;5.456;2024-02-15T14:55:50;3.92;;;2.22;;
42110;SDS011;27766;52.174;5.456;2024-02-15T14:58:19;6.10;;;2.20;;
42110;SDS011;27766;52.174;5.456;2024-02-15T15:00:49;4.13;;;2.67;;
42110;SDS011;27766;52.174;5.456;2024-02-15T15:03:16;4.43;;;2.35;;
42110;SDS011;27766;52.174;5.456;2024-02-15T15:05:44;5.47;;;2.67;;
42110;SDS011;27766;52.174;5.456;2024-02-15T15:08:31;6.90;;;2.45;;
42110;SDS011;27766;52.174;5.456;2024-02-15T15:11:17;3.40;;;1.88;;
42110;SDS011;27766;52.174;5.456;2024-02-15T15:14:04;5.97;;;2.90;;